createdAt,value
2023-02-27T01:42:16.454Z,14.78
2023-02-27T01:43:16.501Z,14.77
2023-02-27T01:44:16.588Z,14.77
2023-02-27T01:45:16.629Z,14.77
2023-02-27T01:46:16.693Z,14.77
2023-02-27T01:47:16.725Z,14.77
2023-02-27T01:48:16.805Z,14.79
2023-02-27T01:49:16.914Z,14.75
2023-02-27T01:50:16.940Z,14.78
2023-02-27T01:51:16.960Z,14.78
2023-02-27T01:52:17.004Z,14.80
2023-02-27T01:53:17.079Z,14.79
2023-02-27T01:54:17.137Z,14.75
2023-02-27T01:55:17.198Z,14.76
2023-02-27T01:56:17.240Z,14.76
2023-02-27T01:57:17.311Z,14.76
2023-02-27T01:58:17.356Z,14.75
2023-02-27T01:59:17.406Z,14.74
2023-02-27T02:00:17.467Z,14.74
2023-02-27T02:01:17.590Z,14.75
2023-02-27T02:02:17.611Z,14.75
2023-02-27T02:03:17.635Z,14.74
2023-02-27T02:04:17.678Z,14.74
2023-02-27T02:05:17.742Z,14.75
2023-02-27T02:06:17.824Z,14.73
2023-02-27T02:07:17.870Z,14.75
2023-02-27T02:08:17.913Z,14.74
2023-02-27T02:09:17.937Z,14.75
2023-02-27T02:10:17.997Z,14.74
2023-02-27T02:11:18.063Z,14.75
2023-02-27T02:12:18.101Z,14.73
2023-02-27T02:13:18.132Z,14.73
2023-02-27T02:14:18.220Z,14.72
2023-02-27T02:15:18.257Z,14.72
2023-02-27T02:16:18.292Z,14.73
2023-02-27T02:17:18.325Z,14.74
2023-02-27T02:18:18.371Z,14.73
2023-02-27T02:19:18.410Z,14.72
2023-02-27T02:20:18.468Z,14.71
2023-02-27T02:21:18.538Z,14.73
2023-02-27T02:22:18.532Z,14.69
2023-02-27T02:23:18.607Z,14.72
2023-02-27T02:24:18.658Z,14.71
2023-02-27T02:25:18.701Z,14.72
2023-02-27T02:26:18.713Z,14.74
2023-02-27T02:27:18.782Z,14.72
2023-02-27T02:28:18.818Z,14.72
2023-02-27T02:29:18.880Z,14.72
2023-02-27T02:30:18.902Z,14.71
2023-02-27T02:31:19.022Z,14.69
2023-02-27T02:32:18.998Z,14.66
2023-02-27T02:33:19.024Z,14.69
2023-02-27T02:34:19.083Z,14.68
2023-02-27T02:35:19.086Z,14.66
2023-02-27T02:36:19.142Z,14.67
2023-02-27T02:37:19.182Z,14.65
2023-02-27T06:00:32.740Z,14.95
2023-02-27T06:02:25.701Z,14.95
2023-02-27T06:03:25.754Z,14.96
2023-02-27T06:04:25.663Z,14.96
2023-02-27T06:05:25.646Z,14.97
2023-02-27T06:06:25.960Z,14.96
2023-02-27T06:07:25.693Z,14.95
2023-02-27T06:08:25.648Z,14.97
2023-02-27T06:09:25.643Z,14.97
2023-02-27T06:10:25.624Z,14.97
2023-02-27T06:11:25.628Z,14.96
2023-02-27T06:12:25.628Z,14.97
2023-02-27T06:13:25.628Z,14.97
2023-02-27T06:14:25.609Z,14.98
2023-02-27T06:15:25.616Z,14.98
2023-02-27T06:16:25.889Z,14.99
2023-02-27T06:17:25.600Z,14.98
2023-02-27T06:18:25.562Z,14.97
2023-02-27T06:19:25.564Z,14.96
2023-02-27T06:20:25.577Z,14.99
2023-02-27T06:21:25.560Z,14.97
2023-02-27T06:22:25.587Z,14.96
2023-02-27T06:23:25.551Z,14.97
2023-02-27T06:24:25.549Z,14.83
2023-02-27T06:25:25.609Z,14.88
2023-02-27T06:26:26.058Z,14.92
2023-02-27T06:27:25.720Z,14.95
2023-02-27T06:28:25.765Z,14.98
2023-02-27T06:29:25.799Z,15.03
2023-02-27T06:30:25.870Z,15.04
2023-02-27T06:31:25.959Z,15.05
2023-02-27T06:32:26.279Z,15.02
2023-02-27T06:33:26.096Z,15.02
2023-02-27T06:34:26.136Z,16.30
2023-02-27T06:35:26.181Z,16.57
2023-02-27T06:36:26.537Z,16.82
2023-02-27T06:37:26.780Z,16.89
2023-02-27T06:38:26.178Z,17.81
2023-02-27T06:42:26.304Z,19.21
2023-02-27T06:43:26.302Z,19.89
2023-02-27T06:44:26.302Z,19.66
2023-02-27T06:45:33.360Z,18.73
2023-02-27T06:46:26.807Z,19.03
2023-02-27T06:47:26.824Z,18.99
2023-02-27T06:48:26.297Z,18.86
2023-02-27T06:49:26.328Z,18.81
2023-02-27T06:50:26.312Z,18.85
2023-02-27T06:51:26.470Z,19.00
2023-02-27T06:52:26.372Z,19.21
2023-02-27T06:53:26.823Z,19.46
2023-02-27T06:54:26.334Z,19.64
2023-02-27T06:55:26.298Z,19.80
2023-02-27T06:56:26.592Z,19.88
2023-02-27T06:57:26.286Z,19.99
2023-02-27T06:58:26.298Z,20.04
2023-02-27T06:59:26.258Z,20.12
2023-02-27T07:00:26.290Z,20.16
2023-02-27T07:01:26.297Z,20.25
2023-02-27T07:02:26.262Z,20.18
2023-02-27T07:03:26.339Z,20.15
2023-02-27T07:04:26.306Z,20.13
2023-02-27T07:05:26.238Z,19.89
2023-02-27T07:06:26.472Z,20.12
2023-02-27T07:07:34.709Z,20.13
2023-02-27T07:08:27.325Z,20.22
2023-02-27T07:09:26.218Z,20.26
2023-02-27T07:10:26.190Z,20.30
2023-02-27T07:11:26.187Z,20.29
2023-02-27T07:12:26.138Z,20.35
2023-02-27T07:13:26.188Z,20.40
2023-02-27T07:14:26.123Z,20.47
2023-02-27T07:15:26.168Z,20.53
2023-02-27T07:16:27.094Z,20.55
2023-02-27T07:17:26.126Z,20.46
2023-02-27T07:18:26.336Z,20.44
2023-02-27T07:19:26.136Z,20.59
2023-02-27T07:20:26.091Z,20.67
2023-02-27T07:21:26.078Z,20.68
2023-02-27T07:22:26.135Z,20.69
2023-02-27T07:23:26.093Z,20.70
2023-02-27T07:24:26.072Z,20.84
2023-02-27T07:25:26.062Z,20.88
2023-02-27T07:26:26.455Z,20.90
2023-02-27T07:27:26.046Z,20.96
2023-02-27T07:28:26.065Z,21.05
2023-02-27T07:29:26.028Z,20.65
2023-02-27T07:30:26.038Z,20.69
2023-02-27T07:31:28.006Z,20.32
2023-02-27T07:32:26.032Z,19.95
2023-02-27T07:33:26.100Z,20.12
2023-02-27T07:34:26.034Z,19.96
2023-02-27T07:35:26.032Z,20.09
2023-02-27T07:36:26.311Z,20.08
2023-02-27T07:37:27.951Z,20.09
2023-02-27T07:38:26.313Z,20.00
2023-02-27T07:39:25.960Z,19.91
2023-02-27T07:40:25.968Z,19.59
2023-02-27T07:41:30.820Z,19.99
2023-02-27T07:42:26.947Z,19.96
2023-02-27T07:43:26.326Z,19.99
2023-02-27T07:44:26.737Z,20.00
2023-02-27T07:45:25.920Z,20.07
2023-02-27T07:46:26.313Z,20.11
2023-02-27T07:47:25.912Z,20.18
2023-02-27T07:48:25.999Z,20.25
2023-02-27T07:49:26.639Z,20.29
2023-02-27T07:50:26.027Z,20.36
2023-02-27T07:51:25.900Z,19.82
2023-02-27T07:52:25.880Z,19.46
2023-02-27T07:53:25.887Z,19.38
2023-02-27T07:54:25.875Z,19.31
2023-02-27T07:55:25.854Z,19.30
2023-02-27T07:56:26.189Z,19.16
2023-02-27T07:57:25.957Z,18.83
2023-02-27T07:58:26.361Z,18.98
2023-02-27T07:59:25.967Z,18.98
2023-02-27T08:00:26.105Z,19.02
2023-02-27T08:01:26.058Z,19.14
2023-02-27T08:02:26.139Z,19.03
2023-02-27T08:03:26.169Z,19.01
2023-02-27T08:04:26.225Z,18.96
2023-02-27T08:05:27.187Z,18.92
2023-02-27T08:06:26.463Z,18.89
2023-02-27T08:07:26.185Z,18.92
2023-02-27T08:08:26.164Z,18.85
2023-02-27T08:09:27.160Z,18.89
2023-02-27T08:10:26.184Z,18.99
2023-02-27T08:11:26.388Z,19.00
2023-02-27T08:12:26.192Z,19.04
2023-02-27T08:13:55.641Z,18.98
2023-02-27T08:14:27.149Z,19.04
2023-02-27T08:15:26.116Z,19.08
2023-02-27T08:16:26.581Z,18.97
2023-02-27T08:17:26.113Z,19.13
2023-02-27T08:18:26.122Z,18.94
2023-02-27T08:19:26.102Z,18.85
2023-02-27T08:20:26.081Z,18.93
2023-02-27T08:21:26.449Z,18.90
2023-02-27T08:22:26.064Z,18.97
2023-02-27T08:23:26.048Z,18.95
2023-02-27T08:24:26.057Z,18.98
2023-02-27T08:25:26.815Z,18.99
2023-02-27T08:26:26.518Z,19.07
2023-02-27T08:27:26.160Z,19.08
2023-02-27T08:28:26.212Z,19.01
2023-02-27T08:29:26.311Z,19.00
2023-02-27T08:30:26.378Z,19.14
2023-02-27T08:31:26.440Z,19.04
2023-02-27T08:32:26.474Z,19.06
2023-02-27T08:33:26.524Z,19.14
2023-02-27T08:34:26.806Z,19.12
2023-02-27T08:35:26.655Z,18.56
2023-02-27T08:36:27.008Z,18.76
2023-02-27T08:37:26.711Z,19.20
2023-02-27T08:38:26.735Z,19.94
2023-02-27T08:39:26.747Z,20.83
2023-02-27T08:40:26.741Z,20.99
2023-02-27T08:41:26.810Z,21.29
2023-02-27T08:42:27.017Z,21.03
2023-02-27T08:43:26.840Z,20.66
2023-02-27T08:44:27.310Z,20.60
2023-02-27T08:45:26.945Z,20.86
2023-02-27T08:46:27.291Z,20.77
2023-02-27T08:47:26.957Z,20.99
2023-02-27T08:48:27.043Z,20.79
2023-02-27T08:49:27.024Z,20.50
2023-02-27T08:50:27.020Z,20.34
2023-02-27T08:51:27.333Z,20.12
2023-02-27T08:52:27.127Z,20.15
2023-02-27T08:53:27.113Z,20.26
2023-02-27T08:54:27.180Z,20.29
2023-02-27T08:55:27.202Z,20.31
2023-02-27T08:56:27.650Z,20.35
2023-02-27T08:57:27.348Z,20.34
2023-02-27T08:58:27.312Z,20.43
2023-02-27T08:59:27.349Z,20.39
2023-02-27T09:00:27.367Z,20.36
2023-02-27T09:01:27.751Z,20.42
2023-02-27T09:02:27.362Z,20.64
2023-02-27T09:03:27.374Z,20.64
2023-02-27T09:04:27.829Z,20.70
2023-02-27T09:05:27.514Z,20.60
2023-02-27T09:06:28.094Z,20.62
2023-02-27T09:07:27.598Z,20.74
2023-02-27T09:08:27.637Z,20.84
2023-02-27T09:09:27.704Z,20.94
2023-02-27T09:10:27.702Z,20.93
2023-02-27T09:11:28.033Z,20.99
2023-02-27T09:12:27.771Z,21.01
2023-02-27T09:13:27.757Z,21.14
2023-02-27T09:14:27.736Z,21.16
2023-02-27T09:15:27.788Z,21.23
2023-02-27T09:16:28.151Z,21.26
2023-02-27T09:17:27.761Z,21.30
2023-02-27T09:18:27.746Z,21.32
2023-02-27T09:19:27.872Z,21.39
2023-02-27T09:20:27.808Z,21.40
2023-02-27T09:21:27.844Z,21.56
2023-02-27T09:22:27.887Z,21.60
2023-02-27T09:23:27.968Z,21.63
2023-02-27T09:24:28.409Z,21.69
2023-02-27T09:25:28.085Z,21.79
2023-02-27T09:26:40.922Z,21.93
2023-02-27T09:27:29.174Z,21.96
2023-02-27T09:28:28.133Z,22.03
2023-02-27T09:29:28.106Z,22.17
2023-02-27T09:30:28.350Z,22.18
2023-02-27T09:31:29.490Z,22.16
2023-02-27T09:32:28.214Z,22.30
2023-02-27T09:33:29.242Z,22.54
2023-02-27T09:34:28.075Z,22.62
2023-02-27T09:35:28.394Z,20.38
2023-02-27T09:36:28.454Z,21.53
2023-02-27T09:37:28.073Z,21.81
2023-02-27T09:38:28.065Z,22.27
2023-02-27T09:39:28.054Z,18.45
2023-02-27T09:40:28.359Z,19.61
2023-02-27T09:41:28.341Z,18.84
2023-02-27T09:42:28.021Z,19.53
2023-02-27T09:43:27.989Z,19.01
2023-02-27T09:44:43.443Z,18.34
2023-02-27T09:45:29.001Z,19.13
2023-02-27T09:46:29.342Z,19.88
2023-02-27T09:47:27.997Z,19.22
2023-02-27T09:48:28.005Z,19.50
2023-02-27T09:49:27.991Z,20.27
2023-02-27T09:50:28.381Z,20.38
2023-02-27T09:51:28.394Z,21.21
2023-02-27T09:52:27.987Z,20.83
2023-02-27T09:53:28.004Z,20.77
2023-02-27T09:54:27.938Z,20.92
2023-02-27T09:55:27.912Z,21.19
2023-02-27T09:56:28.254Z,21.53
2023-02-27T09:57:27.897Z,21.51
2023-02-27T09:58:27.930Z,21.26
2023-02-27T09:59:27.906Z,21.08
2023-02-27T10:00:27.905Z,21.12
2023-02-27T10:01:28.252Z,21.35
2023-02-27T10:02:27.934Z,21.42
2023-02-27T10:03:27.970Z,21.56
2023-02-27T10:04:27.865Z,21.74
2023-02-27T10:05:27.887Z,21.72
2023-02-27T10:06:28.155Z,21.96
2023-02-27T10:07:27.861Z,22.05
2023-02-27T10:08:27.843Z,22.23
2023-02-27T10:09:27.797Z,22.13
2023-02-27T10:10:27.858Z,22.15
2023-02-27T10:11:27.801Z,22.08
2023-02-27T10:12:27.809Z,22.06
2023-02-27T10:13:27.890Z,22.07
2023-02-27T10:14:27.989Z,21.97
2023-02-27T10:15:28.108Z,21.84
2023-02-27T10:16:28.431Z,21.57
2023-02-27T10:17:28.101Z,21.62
2023-02-27T10:18:30.746Z,21.07
2023-02-27T10:19:28.253Z,18.95
2023-02-27T10:20:28.414Z,19.29
2023-02-27T10:21:30.860Z,20.03
2023-02-27T10:22:28.213Z,20.45
2023-02-27T10:23:28.113Z,20.63
2023-02-27T10:24:28.159Z,20.98
2023-02-27T10:25:32.080Z,20.92
2023-02-27T10:26:28.139Z,20.96
2023-02-27T10:27:28.141Z,21.08
2023-02-27T10:28:28.125Z,21.10
2023-02-27T10:29:28.140Z,21.09
2023-02-27T10:30:30.889Z,20.92
2023-02-27T10:31:28.547Z,20.92
2023-02-27T10:32:28.093Z,20.90
2023-02-27T10:33:28.498Z,20.85
2023-02-27T10:34:28.101Z,20.82
2023-02-27T10:35:28.512Z,20.80
2023-02-27T10:36:34.215Z,20.77
2023-02-27T10:37:29.048Z,20.77
2023-02-27T10:38:28.038Z,20.83
2023-02-27T10:39:28.046Z,20.84
2023-02-27T10:40:28.034Z,20.92
2023-02-27T10:41:28.404Z,20.98
2023-02-27T10:42:28.148Z,20.92
2023-02-27T10:43:28.031Z,21.19
2023-02-27T10:44:27.978Z,21.20
2023-02-27T10:45:28.479Z,21.39
2023-02-27T10:46:28.446Z,21.48
2023-02-27T10:47:28.037Z,21.50
2023-02-27T10:48:28.042Z,21.49
2023-02-27T10:49:27.991Z,21.76
2023-02-27T10:50:28.400Z,21.79
2023-02-27T10:51:28.363Z,21.89
2023-02-27T10:52:28.052Z,21.91
2023-02-27T10:53:28.103Z,22.32
2023-02-27T10:54:28.050Z,22.45
2023-02-27T10:55:28.444Z,22.56
2023-02-27T10:56:28.444Z,22.76
2023-02-27T10:57:28.273Z,22.82
2023-02-27T10:58:29.990Z,22.86
2023-02-27T10:59:28.379Z,23.03
2023-02-27T11:00:28.446Z,23.35
2023-02-27T11:01:29.249Z,23.39
2023-02-27T11:02:29.520Z,23.32
2023-02-27T11:03:28.534Z,23.43
2023-02-27T11:04:28.631Z,23.60
2023-02-27T11:05:28.613Z,23.63
2023-02-27T11:06:29.617Z,23.79
2023-02-27T11:07:28.624Z,23.84
2023-02-27T11:08:28.609Z,24.00
2023-02-27T11:09:29.690Z,24.05
2023-02-27T11:10:28.545Z,24.38
2023-02-27T11:11:29.190Z,24.39
2023-02-27T11:12:28.608Z,24.59
2023-02-27T11:13:28.532Z,24.59
2023-02-27T11:14:28.503Z,24.76
2023-02-27T11:15:28.549Z,24.83
2023-02-27T11:16:28.519Z,24.89
2023-02-27T11:17:28.581Z,24.90
2023-02-27T11:18:28.580Z,24.94
2023-02-27T11:19:28.598Z,25.10
2023-02-27T11:20:28.610Z,25.20
2023-02-27T11:21:29.277Z,25.50
2023-02-27T11:22:28.746Z,25.47
2023-02-27T11:23:28.713Z,25.55
2023-02-27T11:24:28.722Z,25.82
2023-02-27T11:25:28.741Z,25.84
2023-02-27T11:26:28.931Z,25.81
2023-02-27T11:27:28.829Z,25.99
2023-02-27T11:28:28.773Z,26.01
2023-02-27T11:29:28.830Z,26.15
2023-02-27T11:30:28.859Z,26.28
2023-02-27T11:31:29.350Z,26.42
2023-02-27T11:32:28.888Z,26.49
2023-02-27T11:33:28.935Z,26.58
2023-02-27T11:34:28.936Z,26.77
2023-02-27T11:35:28.957Z,26.77
2023-02-27T11:36:29.407Z,26.78
2023-02-27T11:37:28.976Z,27.08
2023-02-27T11:38:29.039Z,27.30
2023-02-27T11:39:28.996Z,27.77
2023-02-27T11:40:29.027Z,27.67
2023-02-27T11:41:29.748Z,27.25
2023-02-27T11:42:29.084Z,26.60
2023-02-27T11:43:29.071Z,26.16
2023-02-27T11:44:50.274Z,25.98
2023-02-27T11:46:17.650Z,25.91
2023-02-27T11:46:48.466Z,25.82
2023-02-27T11:47:30.170Z,25.66
2023-02-27T11:48:29.052Z,25.60
2023-02-27T11:49:29.095Z,25.51
2023-02-27T11:50:29.111Z,25.32
2023-02-27T11:51:29.372Z,25.17
2023-02-27T11:52:29.137Z,25.06
2023-02-27T11:53:29.045Z,24.91
2023-02-27T11:54:29.145Z,24.83
2023-02-27T11:55:29.069Z,24.72
2023-02-27T11:56:28.995Z,24.66
2023-02-27T11:57:29.017Z,24.55
2023-02-27T11:58:29.076Z,24.41
2023-02-27T11:59:29.019Z,24.31
2023-02-27T12:00:29.088Z,24.23
2023-02-27T12:01:29.292Z,24.14
2023-02-27T12:02:29.117Z,24.02
2023-02-27T12:03:29.000Z,23.95
2023-02-27T12:04:28.968Z,23.84
2023-02-27T12:05:28.992Z,23.76
2023-02-27T12:06:29.987Z,23.68
2023-02-27T12:07:28.932Z,23.59
2023-02-27T12:08:28.952Z,23.52
2023-02-27T12:09:28.920Z,23.42
2023-02-27T12:10:28.925Z,23.35
2023-02-27T12:11:29.180Z,23.25
2023-02-27T12:12:28.984Z,23.20
2023-02-27T12:13:29.005Z,23.10
2023-02-27T12:14:29.192Z,23.04
2023-02-27T12:15:29.166Z,22.97
2023-02-27T12:16:32.446Z,22.86
2023-02-27T12:17:29.212Z,22.82
2023-02-27T12:18:29.188Z,22.71
2023-02-27T12:19:29.184Z,22.64
2023-02-27T12:20:29.206Z,22.62
2023-02-27T12:21:29.209Z,22.51
2023-02-27T12:22:29.212Z,22.47
2023-02-27T12:23:29.163Z,22.38
2023-02-27T12:24:29.147Z,22.33
2023-02-27T12:25:29.165Z,22.34
2023-02-27T12:26:29.513Z,22.35
2023-02-27T12:27:29.408Z,22.35
2023-02-27T12:28:29.153Z,22.34
2023-02-27T12:29:29.118Z,22.25
2023-02-27T12:30:29.167Z,22.19
2023-02-27T12:31:29.540Z,21.97
2023-02-27T12:32:29.461Z,22.12
2023-02-27T12:33:29.082Z,21.91
2023-02-27T12:34:29.099Z,21.93
2023-02-27T12:35:29.109Z,21.87
2023-02-27T12:36:29.056Z,21.54
2023-02-27T12:37:29.464Z,21.68
2023-02-27T12:38:29.049Z,21.39
2023-02-27T12:39:29.038Z,21.39
2023-02-27T12:40:29.039Z,21.11
2023-02-27T12:41:29.263Z,21.27
2023-02-27T12:42:29.035Z,21.27
2023-02-27T12:43:29.048Z,20.80
2023-02-27T12:44:28.992Z,20.68
2023-02-27T12:45:29.010Z,20.61
2023-02-27T12:46:29.014Z,20.54
2023-02-27T12:47:29.026Z,20.60
2023-02-27T12:48:28.983Z,20.57
2023-02-27T12:49:28.987Z,20.47
2023-02-27T12:50:28.954Z,20.33
2023-02-27T12:51:29.343Z,20.25
2023-02-27T12:52:29.006Z,20.09
2023-02-27T12:53:28.932Z,20.07
2023-02-27T12:54:28.941Z,20.04
2023-02-27T12:55:28.907Z,20.00
2023-02-27T12:56:28.930Z,19.95
2023-02-27T12:57:28.905Z,19.81
2023-02-27T12:58:28.895Z,19.79
2023-02-27T12:59:28.918Z,19.72
2023-02-27T13:00:28.896Z,19.72
2023-02-27T13:01:29.417Z,19.81
2023-02-27T13:02:28.909Z,19.80
2023-02-27T13:03:28.877Z,19.84
2023-02-27T13:04:28.847Z,19.87
2023-02-27T13:05:28.853Z,19.68
2023-02-27T13:06:28.891Z,19.71
2023-02-27T13:07:28.838Z,19.69
2023-02-27T13:08:28.835Z,19.69
2023-02-27T13:09:28.856Z,19.66
2023-02-27T13:10:28.814Z,19.75
2023-02-27T13:11:29.107Z,19.76
2023-02-27T13:12:28.802Z,19.73
2023-02-27T13:13:28.852Z,19.64
2023-02-27T13:14:28.822Z,19.69
2023-02-27T13:15:28.876Z,19.59
2023-02-27T13:16:28.975Z,19.61
2023-02-27T13:17:28.925Z,19.63
2023-02-27T13:18:28.952Z,19.66
2023-02-27T13:19:28.960Z,19.68
2023-02-27T13:20:28.960Z,19.74
2023-02-27T13:21:29.205Z,19.74
2023-02-27T13:22:29.013Z,19.78
2023-02-27T13:23:29.038Z,19.79
2023-02-27T13:24:29.076Z,19.82
2023-02-27T13:25:29.271Z,19.78
2023-02-27T13:26:29.410Z,19.77
2023-02-27T13:27:29.462Z,19.74
2023-02-27T13:28:29.164Z,19.72
2023-02-27T13:29:29.219Z,19.70
2023-02-27T13:30:29.164Z,19.69
2023-02-27T13:31:29.531Z,19.70
2023-02-27T13:32:42.627Z,19.66
2023-02-27T13:33:30.137Z,19.65
2023-02-27T13:34:29.194Z,19.65
2023-02-27T13:35:29.153Z,19.65
2023-02-27T13:36:29.140Z,19.65
2023-02-27T13:37:29.146Z,19.63
2023-02-27T13:38:29.123Z,19.60
2023-02-27T13:39:29.118Z,19.58
2023-02-27T13:40:29.095Z,19.55
2023-02-27T13:41:29.565Z,19.57
2023-02-27T13:42:29.107Z,19.54
2023-02-27T13:43:29.068Z,19.53
2023-02-27T13:44:29.071Z,19.50
2023-02-27T13:45:29.072Z,19.50
2023-02-27T13:46:29.076Z,19.48
2023-02-27T13:47:29.098Z,19.46
2023-02-27T13:48:29.081Z,19.45
2023-02-27T13:49:30.053Z,19.43
2023-02-27T13:50:29.027Z,19.40
2023-02-27T13:51:29.147Z,19.36
2023-02-27T13:52:29.052Z,19.34
2023-02-27T13:53:29.001Z,19.32
2023-02-27T13:54:29.020Z,19.31
2023-02-27T13:55:28.981Z,19.31
2023-02-27T13:56:28.984Z,19.31
2023-02-27T13:57:29.443Z,19.25
2023-02-27T13:58:28.986Z,19.23
2023-02-27T13:59:28.988Z,19.26
2023-02-27T14:00:28.985Z,19.25
2023-02-27T14:01:29.532Z,19.26
2023-02-27T14:02:28.978Z,19.29
2023-02-27T14:03:28.934Z,19.26
2023-02-27T14:04:28.930Z,19.21
2023-02-27T14:05:28.935Z,19.19
2023-02-27T14:06:28.914Z,19.20
2023-02-27T14:07:28.918Z,19.22
2023-02-27T14:08:29.287Z,19.21
2023-02-27T14:09:29.303Z,19.14
2023-02-27T14:10:28.976Z,19.14
2023-02-27T14:11:29.370Z,19.16
2023-02-27T14:12:39.060Z,19.18
2023-02-27T14:13:30.011Z,19.21
2023-02-27T14:14:29.023Z,19.19
2023-02-27T14:15:28.973Z,19.07
2023-02-27T14:16:29.091Z,19.08
2023-02-27T14:17:29.106Z,19.10
2023-02-27T14:18:34.256Z,19.09
2023-02-27T14:19:29.945Z,19.13
2023-02-27T14:20:28.960Z,19.06
2023-02-27T14:21:29.260Z,18.93
2023-02-27T14:22:28.937Z,19.31
2023-02-27T14:23:28.965Z,20.73
2023-02-27T14:24:28.920Z,21.67
2023-02-27T14:25:28.921Z,21.49
2023-02-27T14:26:28.936Z,21.06
2023-02-27T14:27:28.903Z,21.07
2023-02-27T14:28:28.894Z,21.09
2023-02-27T14:29:28.864Z,21.36
2023-02-27T14:30:28.883Z,21.81
2023-02-27T14:31:29.193Z,21.81
2023-02-27T14:32:28.877Z,22.06
2023-02-27T14:33:39.661Z,22.33
2023-02-27T14:34:29.854Z,22.33
2023-02-27T14:35:28.861Z,22.33
2023-02-27T14:36:28.823Z,22.89
2023-02-27T14:37:28.827Z,22.93
2023-02-27T14:38:28.794Z,23.34
2023-02-27T14:39:28.800Z,23.42
2023-02-27T14:40:30.281Z,23.43
2023-02-27T14:41:29.074Z,23.33
2023-02-27T14:42:28.922Z,23.36
2023-02-27T14:43:28.764Z,23.52
2023-02-27T14:44:28.847Z,23.69
2023-02-27T14:45:28.881Z,23.89
2023-02-27T14:46:29.015Z,23.93
2023-02-27T14:47:28.970Z,24.01
2023-02-27T14:48:29.003Z,24.11
2023-02-27T14:49:29.116Z,24.13
2023-02-27T14:50:29.051Z,24.26
2023-02-27T14:51:29.427Z,24.34
2023-02-27T14:52:29.095Z,24.43
2023-02-27T14:53:29.123Z,24.57
2023-02-27T14:54:29.163Z,24.74
2023-02-27T14:55:29.196Z,24.89
2023-02-27T14:56:29.505Z,24.82
2023-02-27T14:57:29.205Z,25.02
2023-02-27T14:58:29.260Z,25.13
2023-02-27T14:59:29.257Z,25.15
2023-02-27T15:00:29.310Z,25.27
2023-02-27T15:01:29.750Z,25.36
2023-02-27T15:02:29.359Z,25.51
2023-02-27T15:03:29.376Z,25.59
2023-02-27T15:04:29.455Z,25.64
2023-02-27T15:05:29.434Z,25.68
2023-02-27T15:06:29.968Z,25.66
2023-02-27T15:07:29.476Z,25.62
2023-02-27T15:08:29.489Z,25.78
2023-02-27T15:09:29.526Z,25.85
2023-02-27T15:10:29.526Z,25.93
2023-02-27T15:11:29.908Z,25.96
2023-02-27T15:12:29.592Z,26.10
2023-02-27T15:13:29.616Z,26.00
2023-02-27T15:14:29.607Z,26.06
2023-02-27T15:15:29.636Z,26.00
2023-02-27T15:16:30.099Z,25.99
2023-02-27T15:17:29.708Z,25.93
2023-02-27T15:18:29.673Z,26.12
2023-02-27T15:19:29.702Z,26.06
2023-02-27T15:20:29.714Z,21.21
2023-02-27T15:21:29.760Z,22.09
2023-02-27T15:22:38.435Z,23.32
2023-02-27T15:23:30.760Z,23.98
2023-02-27T15:24:33.141Z,24.24
2023-02-27T15:25:30.816Z,24.17
2023-02-27T15:26:30.054Z,24.34
2023-02-27T15:27:29.771Z,24.58
2023-02-27T15:28:29.761Z,24.72
2023-02-27T15:29:29.738Z,24.57
2023-02-27T15:30:29.719Z,24.49
2023-02-27T15:31:30.148Z,24.44
2023-02-27T15:32:29.752Z,24.36
2023-02-27T15:33:29.707Z,24.22
2023-02-27T15:34:29.695Z,24.15
2023-02-27T15:35:29.677Z,24.18
2023-02-27T15:36:29.681Z,24.12
2023-02-27T15:37:29.732Z,24.15
2023-02-27T15:38:29.651Z,24.33
2023-02-27T15:39:29.630Z,24.40
2023-02-27T15:40:29.669Z,24.48
2023-02-27T15:41:29.806Z,24.52
2023-02-27T15:42:29.727Z,24.58
2023-02-27T15:43:29.737Z,24.72
2023-02-27T15:44:29.812Z,24.79
2023-02-27T15:45:29.815Z,24.84
2023-02-27T15:46:29.910Z,24.91
2023-02-27T15:47:29.859Z,24.93
2023-02-27T15:48:29.849Z,24.93
2023-02-27T15:49:29.894Z,24.74
2023-02-27T15:50:29.954Z,23.55
2023-02-27T15:51:30.216Z,23.47
2023-02-27T15:52:30.062Z,24.07
2023-02-27T15:53:30.105Z,22.10
2023-02-27T15:54:30.143Z,22.24
2023-02-27T15:55:30.192Z,22.74
2023-02-27T15:56:30.263Z,23.11
2023-02-27T15:57:30.299Z,23.38
2023-02-27T15:58:30.376Z,23.50
2023-02-27T15:59:30.335Z,23.57
2023-02-27T16:00:30.396Z,23.88
2023-02-27T16:01:30.849Z,23.87
2023-02-27T16:02:30.493Z,23.92
2023-02-27T16:03:30.449Z,23.97
2023-02-27T16:04:30.442Z,23.95
2023-02-27T16:05:30.438Z,24.12
2023-02-27T16:06:30.984Z,24.10
2023-02-27T16:07:30.622Z,24.16
2023-02-27T16:08:30.644Z,24.22
2023-02-27T16:09:30.668Z,22.78
2023-02-27T16:10:30.676Z,21.80
2023-02-27T16:11:30.682Z,21.54
2023-02-27T16:12:30.727Z,20.13
2023-02-27T16:13:30.745Z,19.77
2023-02-27T16:14:30.780Z,20.74
2023-02-27T16:15:30.785Z,20.48
2023-02-27T16:16:31.248Z,20.94
2023-02-27T16:17:30.826Z,20.71
2023-02-27T16:18:30.949Z,20.40
2023-02-27T16:19:30.831Z,21.28
2023-02-27T16:20:30.924Z,21.99
2023-02-27T16:21:30.920Z,22.45
2023-02-27T16:22:30.931Z,22.83
2023-02-27T16:23:31.047Z,23.09
2023-02-27T16:24:30.959Z,23.13
2023-02-27T16:25:31.007Z,23.22
2023-02-27T16:26:31.420Z,23.21
2023-02-27T16:27:31.119Z,23.21
2023-02-27T16:28:31.135Z,23.14
2023-02-27T16:29:31.125Z,23.12
2023-02-27T16:30:31.204Z,23.14
2023-02-27T16:31:31.153Z,23.14
2023-02-27T16:32:31.212Z,23.14
2023-02-27T16:34:46.893Z,23.12
2023-02-27T16:35:46.781Z,23.05
2023-02-27T16:36:46.728Z,23.00
2023-02-27T16:37:46.729Z,23.00
2023-02-27T16:38:46.695Z,22.98
2023-02-27T16:39:46.678Z,23.16
2023-02-27T16:40:46.784Z,23.20
2023-02-27T16:41:46.663Z,23.29
2023-02-27T16:42:46.693Z,23.37
2023-02-27T16:43:46.707Z,23.50
2023-02-27T16:44:46.675Z,23.54
2023-02-27T16:45:46.697Z,23.61
2023-02-27T16:46:46.632Z,23.73
2023-02-27T16:47:46.630Z,23.73
2023-02-27T16:48:46.623Z,23.69
2023-02-27T16:49:46.622Z,23.79
2023-02-27T16:50:46.614Z,23.94
2023-02-27T16:51:46.603Z,24.04
2023-02-27T16:52:46.617Z,24.07
2023-02-27T16:53:46.577Z,24.27
2023-02-27T16:54:46.579Z,24.23
2023-02-27T16:55:46.581Z,24.97
2023-02-27T16:56:46.570Z,25.02
2023-02-27T16:57:46.579Z,26.73
2023-02-27T16:58:46.557Z,25.21
2023-02-27T16:59:46.562Z,24.87
2023-02-27T17:00:46.549Z,24.45
2023-02-27T17:01:46.531Z,24.34
2023-02-27T17:02:46.534Z,24.15
2023-02-27T17:03:46.514Z,22.88
2023-02-27T17:04:46.559Z,22.15
2023-02-27T17:05:46.509Z,21.73
2023-02-27T17:06:46.489Z,22.36
2023-02-27T17:07:46.498Z,22.85
2023-02-27T17:08:46.488Z,22.80
2023-02-27T17:09:46.491Z,23.07
2023-02-27T17:10:46.444Z,22.87
2023-02-27T17:11:46.477Z,23.09
2023-02-27T17:12:46.468Z,23.08
2023-02-27T17:13:46.499Z,23.04
2023-02-27T17:14:46.474Z,22.95
2023-02-27T17:15:46.467Z,22.86
2023-02-27T17:35:46.472Z,21.93
2023-02-27T17:36:46.460Z,21.86
2023-02-27T17:37:46.498Z,21.83
2023-02-27T17:38:46.534Z,21.81
2023-02-27T17:39:46.593Z,21.80
2023-02-27T17:40:46.628Z,21.76
2023-02-27T17:41:46.633Z,21.71
2023-02-27T17:42:46.673Z,21.71
2023-02-27T17:43:46.719Z,21.68
2023-02-27T17:44:46.767Z,21.61
2023-02-27T17:45:46.789Z,21.60
2023-02-27T17:46:46.826Z,21.49
2023-02-27T17:47:46.879Z,21.51
2023-02-27T17:48:46.896Z,21.36
2023-02-27T17:49:46.918Z,21.32
2023-02-27T17:50:46.962Z,21.32
2023-02-27T17:51:47.003Z,21.28
2023-02-27T17:52:47.097Z,21.29
2023-02-27T17:53:47.055Z,21.27
2023-02-27T17:54:47.091Z,21.30
2023-02-27T17:55:47.145Z,21.25
2023-02-27T17:56:47.166Z,21.20
2023-02-27T17:57:47.230Z,21.16
2023-02-27T17:58:47.247Z,21.15
2023-02-27T17:59:47.292Z,21.06
2023-02-27T18:00:47.309Z,21.04
2023-02-27T18:01:47.397Z,20.93
2023-02-27T18:02:47.429Z,20.93
2023-02-27T18:03:47.437Z,20.93
2023-02-27T18:04:47.483Z,20.94
2023-02-27T18:05:47.568Z,20.93
2023-02-27T18:06:47.579Z,20.88
2023-02-27T18:07:47.600Z,20.92
2023-02-27T18:08:47.661Z,20.85
2023-02-27T18:09:47.707Z,20.74
2023-02-27T18:10:47.761Z,20.75
2023-02-27T18:11:47.789Z,20.63
2023-02-27T18:12:47.829Z,20.66
2023-02-27T18:13:47.896Z,20.63
2023-02-27T18:14:47.922Z,20.64
2023-02-27T18:15:47.974Z,20.67
2023-02-27T18:16:48.024Z,20.50
2023-02-27T18:17:48.054Z,20.71
2023-02-27T18:18:48.110Z,20.50
2023-02-27T18:19:48.125Z,20.46
2023-02-27T18:20:48.178Z,20.37